Time;durP1;ratioP1;P1;durP2;ratioP2;P2;SDS_P1;SDS_P2;PMS_P1;PMS_P2;Temp;Humidity;BMP_temperature;BMP_pressure;BME280_temperature;BME280_humidity;BME280_pressure;Samples;Min_cycle;Max_cycle;Signal;HPM_P1;HPM_P2
2023/08/24 00:00:42;;;;;;;7.32;5.25;;;22.20;99.90;;;;;;5030616;28;20030;-84
2023/08/24 00:03:08;;;;;;;11.45;4.75;;;22.20;99.90;;;;;;5030283;28;20021;-85
2023/08/24 00:05:38;;;;;;;11.35;5.00;;;22.10;99.90;;;;;;5033494;28;20445;-85
2023/08/24 00:08:04;;;;;;;8.65;5.38;;;22.10;99.90;;;;;;5035652;28;20029;-83
2023/08/24 00:10:30;;;;;;;10.80;5.93;;;22.00;99.90;;;;;;5034281;28;20040;-82
2023/08/24 00:12:56;;;;;;;12.60;5.57;;;22.00;99.90;;;;;;5035238;28;20461;-82
2023/08/24 00:15:22;;;;;;;7.10;5.13;;;22.00;99.90;;;;;;5035854;28;20402;-83
2023/08/24 00:17:47;;;;;;;9.27;5.65;;;22.00;99.90;;;;;;5034250;28;20108;-83
2023/08/24 00:20:13;;;;;;;7.32;4.75;;;21.90;99.90;;;;;;5034460;28;20433;-84
2023/08/24 00:22:39;;;;;;;5.75;5.13;;;21.80;99.90;;;;;;5035204;28;20025;-83
2023/08/24 00:25:06;;;;;;;11.25;5.60;;;21.90;99.90;;;;;;5033651;28;20025;-83
2023/08/24 00:27:32;;;;;;;9.13;5.18;;;21.90;99.90;;;;;;5033661;28;20025;-83
2023/08/24 00:29:58;;;;;;;7.85;4.72;;;21.80;99.90;;;;;;5033966;28;20057;-87
2023/08/24 00:32:23;;;;;;;8.77;4.80;;;21.80;99.90;;;;;;5033977;28;20030;-84
2023/08/24 00:34:49;;;;;;;9.52;4.75;;;21.80;99.90;;;;;;5035200;28;20053;-85
2023/08/24 00:37:15;;;;;;;8.27;5.38;;;21.70;99.90;;;;;;5035149;28;20429;-85
2023/08/24 00:39:41;;;;;;;6.32;4.55;;;21.70;99.90;;;;;;5035057;28;20017;-84
2023/08/24 00:42:07;;;;;;;7.53;5.10;;;21.70;99.90;;;;;;5033581;28;20029;-85
2023/08/24 00:44:33;;;;;;;9.50;5.85;;;21.70;99.90;;;;;;5033786;28;20022;-85
2023/08/24 00:46:59;;;;;;;5.15;4.65;;;21.60;99.90;;;;;;5035393;28;20025;-86
2023/08/24 00:49:26;;;;;;;7.75;5.03;;;21.60;99.90;;;;;;5033865;28;20567;-85
2023/08/24 00:51:52;;;;;;;7.38;4.50;;;21.60;99.90;;;;;;5033621;28;20029;-84
2023/08/24 00:54:18;;;;;;;6.38;4.75;;;21.50;99.90;;;;;;5034752;28;20030;-85
2023/08/24 00:56:44;;;;;;;9.35;4.97;;;21.50;99.90;;;;;;5034667;28;20058;-84
2023/08/24 00:59:10;;;;;;;7.75;4.85;;;21.50;99.90;;;;;;5045041;28;20056;-83
2023/08/24 01:01:35;;;;;;;6.63;4.90;;;21.50;99.90;;;;;;5040391;28;20049;-87
2023/08/24 01:04:02;;;;;;;5.78;4.95;;;21.50;99.90;;;;;;5034437;28;20075;-85
2023/08/24 01:06:28;;;;;;;8.82;4.95;;;21.40;99.90;;;;;;5033810;28;20022;-86
2023/08/24 01:08:54;;;;;;;7.20;4.90;;;21.40;99.90;;;;;;5035001;28;20044;-85
2023/08/24 01:11:41;;;;;;;6.65;4.90;;;21.40;99.90;;;;;;5035217;28;20056;-87
2023/08/24 01:14:06;;;;;;;;;;;21.30;99.90;;;;;;5032012;28;20144;-86
2023/08/24 01:16:36;;;;;;;6.67;4.83;;;21.30;99.90;;;;;;5032964;28;20367;-86
2023/08/24 01:19:06;;;;;;;9.40;5.20;;;21.30;99.90;;;;;;5034851;28;20028;-86
2023/08/24 01:21:32;;;;;;;9.73;5.20;;;21.30;99.90;;;;;;5033167;28;20032;-85
2023/08/24 01:24:03;;;;;;;12.68;5.60;;;21.20;99.90;;;;;;5034861;28;20022;-86
2023/08/24 01:26:30;;;;;;;5.60;4.57;;;21.30;99.90;;;;;;5034800;28;20032;-86
2023/08/24 01:28:56;;;;;;;7.70;5.28;;;21.20;99.90;;;;;;5033117;28;20168;-86
2023/08/24 01:31:22;;;;;;;7.95;5.43;;;21.30;99.90;;;;;;5032589;28;20056;-86
2023/08/24 01:33:47;;;;;;;8.75;5.00;;;21.30;99.90;;;;;;5033262;28;20106;-86
2023/08/24 01:36:16;;;;;;;6.32;5.07;;;21.20;99.90;;;;;;5034485;28;20021;-86
2023/08/24 01:38:42;;;;;;;6.18;5.15;;;21.20;99.90;;;;;;5034146;28;20053;-86
2023/08/24 01:41:26;;;;;;;9.75;6.28;;;21.20;99.90;;;;;;5034030;28;20498;-86
2023/08/24 01:43:54;;;;;;;9.82;4.93;;;21.20;99.90;;;;;;5034460;28;20064;-86
2023/08/24 01:46:21;;;;;;;9.98;5.03;;;21.20;99.90;;;;;;5034346;28;20022;-86
2023/08/24 01:48:48;;;;;;;6.32;5.28;;;21.20;99.90;;;;;;5032971;28;20080;-85
2023/08/24 01:51:15;;;;;;;9.10;5.75;;;21.30;99.90;;;;;;5033899;28;20033;-84
2023/08/24 01:53:41;;;;;;;7.78;5.65;;;21.20;99.90;;;;;;5031610;28;20398;-85
2023/08/24 01:56:11;;;;;;;5.45;4.85;;;21.20;99.90;;;;;;5033606;28;20026;-85
2023/08/24 01:58:37;;;;;;;8.30;6.05;;;21.20;99.90;;;;;;5032736;28;20536;-85
2023/08/24 02:01:03;;;;;;;10.02;6.05;;;21.20;99.90;;;;;;5033586;28;20105;-85
2023/08/24 02:03:29;;;;;;;10.25;6.25;;;21.20;99.90;;;;;;5033658;28;20028;-85
2023/08/24 02:05:55;;;;;;;8.05;5.07;;;21.20;99.90;;;;;;5032482;28;20029;-85
2023/08/24 02:08:20;;;;;;;7.18;5.82;;;21.20;99.90;;;;;;5032128;28;20038;-85
2023/08/24 02:10:46;;;;;;;10.38;6.30;;;21.20;99.90;;;;;;5030843;28;20025;-84
2023/08/24 02:13:11;;;;;;;9.13;5.97;;;21.20;99.90;;;;;;5032960;28;20103;-85
2023/08/24 02:15:39;;;;;;;8.70;5.97;;;21.30;99.90;;;;;;5033399;28;20387;-86
2023/08/24 02:18:05;;;;;;;9.73;5.90;;;21.20;99.90;;;;;;5031904;28;20021;-84
2023/08/24 02:20:35;;;;;;;9.77;5.97;;;21.30;99.90;;;;;;5031905;28;20029;-86
2023/08/24 02:23:00;;;;;;;11.25;6.45;;;21.20;99.90;;;;;;5032398;28;20171;-85
2023/08/24 02:25:26;;;;;;;6.00;4.85;;;21.20;99.90;;;;;;5032071;28;20060;-85
2023/08/24 02:27:52;;;;;;;7.07;5.47;;;21.20;99.90;;;;;;5032020;28;20037;-84
2023/08/24 02:30:17;;;;;;;9.00;6.32;;;21.20;99.90;;;;;;5033160;28;20032;-85
2023/08/24 02:32:43;;;;;;;6.80;6.00;;;21.10;99.90;;;;;;5032737;28;20026;-85
2023/08/24 02:35:09;;;;;;;7.97;6.50;;;21.10;99.90;;;;;;5032032;28;20059;-85
2023/08/24 02:37:34;;;;;;;12.20;6.38;;;21.10;99.90;;;;;;5031762;28;20029;-86
2023/08/24 02:40:00;;;;;;;8.32;5.68;;;21.10;99.90;;;;;;5032707;28;20065;-87
2023/08/24 02:42:26;;;;;;;10.63;6.95;;;21.10;99.90;;;;;;5043380;28;20036;-85
2023/08/24 02:44:52;;;;;;;9.48;6.55;;;21.10;99.90;;;;;;5038533;28;20021;-84
2023/08/24 02:47:18;;;;;;;7.43;6.32;;;21.10;99.90;;;;;;5031062;28;20371;-82
2023/08/24 02:49:43;;;;;;;7.45;6.63;;;21.10;99.90;;;;;;5031983;28;20073;-85
2023/08/24 02:52:09;;;;;;;9.75;6.80;;;21.00;99.90;;;;;;5032703;28;20033;-85
2023/08/24 02:54:35;;;;;;;10.20;6.68;;;21.00;99.90;;;;;;5033198;28;20075;-86
2023/08/24 02:57:00;;;;;;;7.15;6.32;;;21.00;99.90;;;;;;5030794;28;20029;-86
2023/08/24 02:59:26;;;;;;;8.88;6.28;;;21.00;99.90;;;;;;5033800;28;20026;-85
2023/08/24 03:01:52;;;;;;;9.65;6.45;;;21.00;99.90;;;;;;5033238;28;20162;-87
2023/08/24 03:04:18;;;;;;;10.13;7.22;;;21.00;99.90;;;;;;5032771;28;20017;-85
2023/08/24 03:06:44;;;;;;;6.22;5.53;;;21.00;99.90;;;;;;5033012;28;20030;-84
2023/08/24 03:09:10;;;;;;;6.65;5.95;;;21.00;99.90;;;;;;5031663;28;20034;-85
2023/08/24 03:11:35;;;;;;;10.65;6.53;;;20.90;99.90;;;;;;5032596;28;20033;-85
2023/08/24 03:14:01;;;;;;;8.30;6.55;;;20.90;99.90;;;;;;5032908;28;20049;-85
2023/08/24 03:16:27;;;;;;;8.60;6.97;;;20.90;99.90;;;;;;5032724;28;20072;-85
2023/08/24 03:18:52;;;;;;;7.82;6.25;;;20.90;99.90;;;;;;5032822;28;20033;-86
2023/08/24 03:21:18;;;;;;;8.93;6.85;;;20.90;99.90;;;;;;5031427;28;20044;-85
2023/08/24 03:23:44;;;;;;;10.07;8.27;;;20.90;99.90;;;;;;5032823;28;20053;-85
2023/08/24 03:26:09;;;;;;;7.30;6.55;;;20.80;99.90;;;;;;5031151;28;20030;-85
2023/08/24 03:28:35;;;;;;;12.60;6.90;;;20.90;99.90;;;;;;5032571;28;20029;-86
2023/08/24 03:31:01;;;;;;;9.15;7.45;;;20.80;99.90;;;;;;5032964;28;20025;-86
2023/08/24 03:33:27;;;;;;;10.00;6.78;;;20.80;99.90;;;;;;5031598;28;20465;-85
2023/08/24 03:35:53;;;;;;;13.82;7.80;;;20.80;99.90;;;;;;5032894;28;20036;-85
2023/08/24 03:38:19;;;;;;;9.98;7.22;;;20.80;99.90;;;;;;5031332;28;20022;-85
2023/08/24 03:40:45;;;;;;;11.75;8.32;;;20.80;99.90;;;;;;5034990;28;20030;-86
2023/08/24 03:43:11;;;;;;;11.95;6.90;;;20.70;99.90;;;;;;5036516;28;20043;-86
2023/08/24 03:45:37;;;;;;;9.52;7.20;;;20.80;99.90;;;;;;5035036;28;20021;-84
2023/08/24 03:48:02;;;;;;;15.13;7.35;;;20.80;99.90;;;;;;5033475;28;20116;-84
2023/08/24 03:50:28;;;;;;;10.32;8.25;;;20.80;99.90;;;;;;5035825;28;20036;-87
2023/08/24 03:52:54;;;;;;;11.15;7.63;;;20.70;99.90;;;;;;5035107;28;20514;-86
2023/08/24 03:55:21;;;;;;;8.52;7.50;;;20.80;99.90;;;;;;5036298;28;20028;-85
2023/08/24 03:57:46;;;;;;;10.32;7.30;;;20.80;99.90;;;;;;5035960;28;20022;-85
2023/08/24 04:00:14;;;;;;;9.60;7.72;;;20.80;99.90;;;;;;5033282;28;20036;-85
2023/08/24 04:02:43;;;;;;;11.18;7.63;;;20.80;99.90;;;;;;5035894;28;20509;-83
2023/08/24 04:05:09;;;;;;;10.80;7.75;;;20.90;99.90;;;;;;5034748;28;20131;-85
2023/08/24 04:07:36;;;;;;;11.15;7.97;;;20.90;99.90;;;;;;5032798;28;20112;-83
2023/08/24 04:10:04;;;;;;;12.82;8.35;;;20.90;99.90;;;;;;5035235;28;20533;-83
2023/08/24 04:12:31;;;;;;;13.50;7.65;;;21.00;99.90;;;;;;5034277;28;20509;-85
2023/08/24 04:14:57;;;;;;;15.15;7.90;;;21.00;99.90;;;;;;5034492;28;20046;-85
2023/08/24 04:17:23;;;;;;;9.88;7.72;;;21.00;99.90;;;;;;5035157;28;20057;-85
2023/08/24 04:19:49;;;;;;;10.00;8.20;;;21.10;99.90;;;;;;5034201;28;20030;-85
2023/08/24 04:22:15;;;;;;;8.90;7.47;;;21.10;99.90;;;;;;5034244;28;20036;-85
2023/08/24 04:24:40;;;;;;;9.48;8.48;;;21.20;99.90;;;;;;5035371;28;20514;-84
2023/08/24 04:27:06;;;;;;;10.80;8.48;;;21.20;99.90;;;;;;5040752;28;20033;-84
2023/08/24 04:29:32;;;;;;;10.52;8.02;;;21.20;99.90;;;;;;5033950;28;20033;-85
2023/08/24 04:31:57;;;;;;;10.38;8.02;;;21.30;99.90;;;;;;5033947;28;20116;-84
2023/08/24 04:34:23;;;;;;;10.35;8.25;;;21.40;99.90;;;;;;5034066;28;20034;-83
2023/08/24 04:36:49;;;;;;;9.85;8.35;;;21.50;99.90;;;;;;5034541;28;20533;-85
2023/08/24 04:39:15;;;;;;;11.25;8.38;;;21.60;99.90;;;;;;5034780;28;20079;-85
2023/08/24 04:41:41;;;;;;;10.85;7.47;;;21.70;99.90;;;;;;5034055;28;20401;-85
2023/08/24 04:44:07;;;;;;;10.88;8.23;;;21.90;99.90;;;;;;5034398;28;20468;-85
2023/08/24 04:46:34;;;;;;;11.20;7.72;;;22.00;99.90;;;;;;5033425;28;20076;-84
2023/08/24 04:48:59;;;;;;;12.05;7.22;;;22.10;99.90;;;;;;5033083;28;20033;-84
2023/08/24 04:51:27;;;;;;;7.95;7.18;;;22.20;99.90;;;;;;5034819;28;20021;-85
2023/08/24 04:53:53;;;;;;;12.23;7.68;;;22.30;99.90;;;;;;5032245;28;20041;-88
2023/08/24 04:56:19;;;;;;;10.75;7.68;;;22.50;99.90;;;;;;5033720;28;20056;-88
2023/08/24 04:58:58;;;;;;;12.73;7.70;;;22.60;99.90;;;;;;5034735;28;20029;-88
2023/08/24 05:01:27;;;;;;;10.50;7.70;;;22.80;99.90;;;;;;5034186;28;20037;-88
2023/08/24 05:03:55;;;;;;;10.13;6.95;;;23.10;99.90;;;;;;5034784;28;20025;-88
2023/08/24 05:06:21;;;;;;;8.70;7.60;;;23.40;99.90;;;;;;5033920;28;20033;-87
2023/08/24 05:08:47;;;;;;;9.55;6.93;;;23.70;99.90;;;;;;5034691;28;20044;-88
2023/08/24 05:11:14;;;;;;;12.18;7.70;;;24.00;99.90;;;;;;5034887;28;20029;-87
2023/08/24 05:13:40;;;;;;;12.00;7.60;;;24.20;99.90;;;;;;5032849;28;20081;-86
2023/08/24 05:16:06;;;;;;;12.13;7.50;;;24.30;99.90;;;;;;5031976;28;20021;-83
2023/08/24 05:18:33;;;;;;;10.13;7.65;;;24.50;99.90;;;;;;5033780;28;20014;-86
2023/08/24 05:20:59;;;;;;;8.85;6.82;;;24.60;99.90;;;;;;5034023;28;20410;-84
2023/08/24 05:23:24;;;;;;;10.98;6.72;;;24.80;99.90;;;;;;5032704;28;20022;-84
2023/08/24 05:25:50;;;;;;;8.15;6.13;;;25.00;99.90;;;;;;5032845;28;20044;-84
2023/08/24 05:28:16;;;;;;;11.93;7.07;;;25.10;99.90;;;;;;5033803;28;20087;-83
2023/08/24 05:30:42;;;;;;;8.45;6.68;;;25.20;99.90;;;;;;5033066;28;20034;-83
2023/08/24 05:33:07;;;;;;;7.88;6.15;;;25.20;99.90;;;;;;5032899;28;20033;-87
2023/08/24 05:35:33;;;;;;;7.10;6.07;;;25.20;99.90;;;;;;5033849;28;20021;-82
2023/08/24 05:37:58;;;;;;;7.55;6.85;;;25.20;99.90;;;;;;5032126;28;20040;-82
2023/08/24 05:40:24;;;;;;;8.25;6.57;;;25.20;99.90;;;;;;5030923;28;20044;-82
2023/08/24 05:42:50;;;;;;;14.20;6.88;;;25.30;99.90;;;;;;5032138;28;20033;-82
2023/08/24 05:45:15;;;;;;;10.02;6.50;;;25.40;99.90;;;;;;5045271;28;20307;-81
2023/08/24 05:47:41;;;;;;;9.18;6.88;;;25.80;99.90;;;;;;5051374;28;20021;-85
2023/08/24 05:50:07;;;;;;;9.82;6.80;;;26.40;99.90;;;;;;5050996;28;20122;-83
2023/08/24 05:52:33;;;;;;;9.13;6.75;;;26.70;99.90;;;;;;5032886;28;20022;-84
2023/08/24 05:54:58;;;;;;;11.57;6.57;;;27.00;99.90;;;;;;5030560;28;20037;-84
2023/08/24 05:57:24;;;;;;;7.70;5.80;;;27.10;99.90;;;;;;5031613;28;20022;-84
2023/08/24 05:59:50;;;;;;;7.47;5.82;;;27.60;99.90;;;;;;5032480;28;20105;-82
2023/08/24 06:02:15;;;;;;;7.75;5.60;;;28.30;99.90;;;;;;5031841;28;20152;-85
2023/08/24 06:04:41;;;;;;;9.05;6.47;;;29.10;99.90;;;;;;5031243;28;20433;-85
2023/08/24 06:07:06;;;;;;;13.85;6.43;;;29.50;99.90;;;;;;5031672;28;20124;-85
2023/08/24 06:09:32;;;;;;;11.40;6.55;;;29.70;99.30;;;;;;5033417;28;20037;-82
2023/08/24 06:11:58;;;;;;;10.55;5.95;;;29.60;98.70;;;;;;5032321;28;20033;-81
2023/08/24 06:14:23;;;;;;;11.38;6.30;;;29.40;98.70;;;;;;5030734;28;20576;-82
2023/08/24 06:16:49;;;;;;;14.43;6.07;;;29.20;98.30;;;;;;5029828;28;20510;-83
2023/08/24 06:19:15;;;;;;;9.15;6.63;;;29.30;98.20;;;;;;5047246;28;20034;-83
2023/08/24 06:21:41;;;;;;;12.82;6.70;;;29.50;97.30;;;;;;5048489;28;20087;-83
2023/08/24 06:24:07;;;;;;;8.35;5.95;;;29.40;96.40;;;;;;5029838;28;20033;-81
2023/08/24 06:26:32;;;;;;;9.30;5.93;;;29.40;96.20;;;;;;5029947;28;20117;-81
2023/08/24 06:28:58;;;;;;;10.40;6.68;;;29.40;96.00;;;;;;5030423;28;20046;-83
2023/08/24 06:31:23;;;;;;;7.20;5.75;;;29.30;95.90;;;;;;5030775;28;20536;-83
2023/08/24 06:33:49;;;;;;;9.93;6.50;;;29.30;95.50;;;;;;5032029;28;20029;-82
2023/08/24 06:36:15;;;;;;;10.27;6.80;;;29.50;95.00;;;;;;5030653;28;20498;-82
2023/08/24 06:38:41;;;;;;;16.88;6.25;;;29.90;94.40;;;;;;5031267;28;20032;-83
2023/08/24 06:41:11;;;;;;;11.25;5.68;;;30.30;93.60;;;;;;5032018;28;20060;-82
2023/08/24 06:43:38;;;;;;;8.45;5.55;;;30.60;92.50;;;;;;5032504;28;20021;-81
2023/08/24 06:46:07;;;;;;;10.05;5.32;;;31.20;91.60;;;;;;5036881;28;20021;-84
2023/08/24 06:48:41;;;;;;;8.43;5.20;;;31.90;89.10;;;;;;5036774;28;21047;-83
2023/08/24 06:51:08;;;;;;;11.27;5.70;;;32.40;84.20;;;;;;5039217;28;20074;-83
2023/08/24 06:53:34;;;;;;;7.30;5.47;;;32.60;81.60;;;;;;5041472;28;20040;-84
2023/08/24 06:55:59;;;;;;;7.70;5.00;;;32.90;79.30;;;;;;5044554;28;20025;-83
2023/08/24 06:58:25;;;;;;;11.80;5.35;;;33.10;77.70;;;;;;5037478;28;20473;-83
2023/08/24 07:00:51;;;;;;;12.43;5.78;;;33.40;75.20;;;;;;5032419;28;20082;-83
2023/08/24 07:03:17;;;;;;;6.32;4.85;;;33.60;73.90;;;;;;5041465;28;20025;-81
2023/08/24 07:05:44;;;;;;;7.53;6.25;;;33.60;72.30;;;;;;5036608;28;20392;-83
2023/08/24 07:08:10;;;;;;;11.20;5.70;;;33.40;72.30;;;;;;5043117;28;20552;-81
2023/08/24 07:10:36;;;;;;;11.57;5.93;;;33.40;71.90;;;;;;5035438;28;20068;-83
2023/08/24 07:13:02;;;;;;;17.42;5.30;;;33.40;72.10;;;;;;5036899;28;20772;-83
2023/08/24 07:15:27;;;;;;;10.73;6.25;;;33.80;70.20;;;;;;5042820;28;20104;-83
2023/08/24 07:17:53;;;;;;;14.95;5.93;;;33.80;69.50;;;;;;5041557;28;20164;-83
2023/08/24 07:20:19;;;;;;;9.02;5.85;;;33.70;70.00;;;;;;5046744;28;20033;-82
2023/08/24 07:22:45;;;;;;;13.07;6.90;;;34.00;68.80;;;;;;5034326;28;20559;-83
2023/08/24 07:25:12;;;;;;;7.32;6.30;;;34.20;68.00;;;;;;5032233;28;20049;-84
2023/08/24 07:27:37;;;;;;;6.60;5.07;;;34.70;66.40;;;;;;5034387;28;20037;-86
2023/08/24 07:30:05;;;;;;;9.35;5.20;;;35.10;63.80;;;;;;5034166;28;20512;-83
2023/08/24 07:32:32;;;;;;;8.93;5.80;;;35.50;61.70;;;;;;5033661;28;20128;-84
2023/08/24 07:34:59;;;;;;;8.07;5.00;;;35.80;60.50;;;;;;5033275;28;20037;-83
2023/08/24 07:37:28;;;;;;;7.97;4.95;;;36.10;59.80;;;;;;5034412;28;20018;-83
2023/08/24 07:39:53;;;;;;;8.27;5.55;;;36.30;58.80;;;;;;5033726;28;20057;-85
2023/08/24 07:42:22;;;;;;;14.27;5.40;;;36.40;57.00;;;;;;5032563;28;20053;-85
2023/08/24 07:44:49;;;;;;;11.63;5.70;;;36.70;57.40;;;;;;5032929;28;20026;-83
2023/08/24 07:47:15;;;;;;;12.02;5.28;;;36.80;56.30;;;;;;5034434;28;20087;-85
2023/08/24 07:49:44;;;;;;;7.80;5.57;;;36.80;56.30;;;;;;5032867;28;20033;-80
2023/08/24 07:52:11;;;;;;;5.10;4.53;;;37.20;55.10;;;;;;5034833;28;20474;-84
2023/08/24 07:54:36;;;;;;;14.73;5.15;;;37.40;53.00;;;;;;5035030;28;20030;-84
2023/08/24 07:57:02;;;;;;;8.63;5.15;;;37.20;53.30;;;;;;5032141;28;20025;-85
2023/08/24 07:59:27;;;;;;;5.45;4.32;;;37.30;52.50;;;;;;5052977;28;20048;-83
2023/08/24 08:01:53;;;;;;;6.30;4.95;;;37.40;52.70;;;;;;5052416;28;20044;-85
2023/08/24 08:04:19;;;;;;;8.00;4.70;;;37.50;51.80;;;;;;5036417;28;20040;-83
2023/08/24 08:06:44;;;;;;;9.50;5.55;;;37.90;53.10;;;;;;5033192;28;20052;-83
2023/08/24 08:09:10;;;;;;;13.32;5.30;;;38.20;52.10;;;;;;5031403;28;20038;-82
2023/08/24 08:11:36;;;;;;;12.07;5.45;;;38.40;50.80;;;;;;5033179;28;20061;-84
2023/08/24 08:14:02;;;;;;;6.05;4.88;;;38.50;49.60;;;;;;5032529;28;20140;-84
2023/08/24 08:16:28;;;;;;;7.15;4.30;;;38.50;48.60;;;;;;5045113;28;20032;-83
2023/08/24 08:18:53;;;;;;;5.57;4.50;;;37.60;48.50;;;;;;5052024;28;20035;-84
2023/08/24 08:21:19;;;;;;;7.20;4.53;;;36.70;50.60;;;;;;5052678;28;20053;-84
2023/08/24 08:23:45;;;;;;;11.98;4.72;;;36.20;52.70;;;;;;5053213;28;20029;-84
2023/08/24 08:26:13;;;;;;;7.93;5.20;;;35.70;53.30;;;;;;5052496;28;20029;-84
2023/08/24 08:28:39;;;;;;;5.30;4.43;;;35.00;54.40;;;;;;5052773;28;20028;-84
2023/08/24 08:31:05;;;;;;;6.70;4.95;;;35.00;56.00;;;;;;5053958;28;20029;-83
2023/08/24 08:33:31;;;;;;;13.20;5.43;;;35.80;53.90;;;;;;5053949;28;20033;-84
2023/08/24 08:35:57;;;;;;;6.05;4.43;;;36.70;52.40;;;;;;5052620;28;20120;-85
2023/08/24 08:38:25;;;;;;;10.05;5.47;;;37.10;51.50;;;;;;5053842;28;20100;-85
2023/08/24 08:40:54;;;;;;;5.38;4.47;;;37.50;51.40;;;;;;5052392;28;20028;-84
2023/08/24 08:43:22;;;;;;;8.40;5.03;;;37.50;49.80;;;;;;5052980;28;20029;-84
2023/08/24 08:45:51;;;;;;;11.85;4.70;;;37.90;49.20;;;;;;5053687;28;20033;-84
2023/08/24 08:48:17;;;;;;;9.02;4.40;;;38.30;49.50;;;;;;5051450;28;20095;-84
2023/08/24 08:50:43;;;;;;;7.47;5.10;;;38.50;49.30;;;;;;5048358;28;20053;-84
2023/08/24 08:53:09;;;;;;;9.50;5.03;;;38.80;49.10;;;;;;5032272;28;20049;-83
2023/08/24 08:55:34;;;;;;;8.05;4.82;;;38.90;48.00;;;;;;5032344;28;20096;-82
2023/08/24 08:58:02;;;;;;;9.10;5.00;;;38.80;47.80;;;;;;5032163;28;20434;-84
2023/08/24 09:00:28;;;;;;;7.60;5.15;;;38.70;48.10;;;;;;5036094;28;20390;-85
2023/08/24 09:02:56;;;;;;;5.90;4.72;;;38.60;48.00;;;;;;5032290;28;20026;-84
2023/08/24 09:05:22;;;;;;;7.65;4.22;;;38.90;48.30;;;;;;5030794;28;20107;-84
2023/08/24 09:07:49;;;;;;;11.70;4.53;;;39.20;46.90;;;;;;5032614;28;20486;-84
2023/08/24 09:10:14;;;;;;;8.35;5.78;;;39.20;46.90;;;;;;5031403;28;20112;-84
2023/08/24 09:12:40;;;;;;;4.97;4.20;;;39.30;47.00;;;;;;5032203;28;20140;-84
2023/08/24 09:15:06;;;;;;;5.53;4.80;;;39.50;47.10;;;;;;5030713;28;20033;-83
2023/08/24 09:17:35;;;;;;;7.63;4.75;;;39.80;45.80;;;;;;5031437;28;20034;-83
2023/08/24 09:20:09;;;;;;;6.70;4.88;;;39.90;45.40;;;;;;5032213;28;20026;-84
2023/08/24 09:22:41;;;;;;;6.78;4.72;;;40.00;45.20;;;;;;5030944;28;20488;-84
2023/08/24 09:25:09;;;;;;;4.85;4.20;;;40.00;44.30;;;;;;5030494;28;20065;-84
2023/08/24 09:27:34;;;;;;;8.15;5.05;;;40.10;45.00;;;;;;5031921;28;20044;-84
2023/08/24 09:30:00;;;;;;;7.53;5.00;;;40.20;44.00;;;;;;5031477;28;20124;-83
2023/08/24 09:32:32;;;;;;;6.60;4.72;;;40.40;42.50;;;;;;5030945;28;20397;-84
2023/08/24 09:35:08;;;;;;;7.40;4.90;;;40.50;42.90;;;;;;5032663;28;20033;-85
2023/08/24 09:37:35;;;;;;;4.20;3.80;;;40.30;42.40;;;;;;5031486;28;20109;-82
2023/08/24 09:40:07;;;;;;;5.35;4.30;;;40.40;43.60;;;;;;5031898;28;20034;-82
2023/08/24 09:42:39;;;;;;;11.52;4.55;;;40.30;43.10;;;;;;5031617;28;20057;-82
2023/08/24 09:45:06;;;;;;;9.35;4.50;;;40.30;41.50;;;;;;5035090;28;20025;-86
2023/08/24 09:47:32;;;;;;;6.53;4.63;;;40.40;41.40;;;;;;5038557;28;20571;-84
2023/08/24 09:49:57;;;;;;;7.38;4.45;;;40.60;41.70;;;;;;5040797;28;20037;-85
2023/08/24 09:52:27;;;;;;;5.63;4.38;;;40.00;41.10;;;;;;5037352;28;20063;-85
2023/08/24 09:54:53;;;;;;;6.80;4.22;;;39.40;43.10;;;;;;5047749;28;20024;-84
2023/08/24 09:57:20;;;;;;;6.00;4.47;;;39.20;44.30;;;;;;5049974;28;20490;-84
2023/08/24 09:59:47;;;;;;;6.15;5.00;;;38.60;44.30;;;;;;5031175;28;20029;-84
2023/08/24 10:02:22;;;;;;;9.68;5.70;;;37.70;45.70;;;;;;5041214;28;20025;-85
2023/08/24 10:04:52;;;;;;;9.65;4.43;;;37.50;46.50;;;;;;5041686;28;20025;-85
2023/08/24 10:07:20;;;;;;;8.27;4.65;;;38.00;45.60;;;;;;5049801;28;20036;-84
2023/08/24 10:10:03;;;;;;;6.53;5.40;;;38.50;44.00;;;;;;5051773;28;20036;-84
2023/08/24 10:12:30;;;;;;;6.10;4.40;;;38.80;43.10;;;;;;5051138;28;20052;-84
2023/08/24 10:15:03;;;;;;;6.97;4.38;;;38.30;42.50;;;;;;5051046;28;20048;-84
2023/08/24 10:17:32;;;;;;;7.32;4.97;;;38.30;43.90;;;;;;5051587;28;20100;-84
2023/08/24 10:20:04;;;;;;;10.68;5.07;;;38.30;45.10;;;;;;5050860;28;20497;-83
2023/08/24 10:22:31;;;;;;;5.70;4.68;;;38.10;45.90;;;;;;5048975;28;20505;-84
2023/08/24 10:24:57;;;;;;;10.13;4.80;;;37.40;44.90;;;;;;5050562;28;20040;-83
2023/08/24 10:27:26;;;;;;;6.15;4.43;;;36.80;46.20;;;;;;5049459;28;20493;-83
2023/08/24 10:29:52;;;;;;;6.57;4.53;;;36.20;48.20;;;;;;5051299;28;20503;-84
2023/08/24 10:32:19;;;;;;;7.35;5.07;;;35.60;49.50;;;;;;5049819;28;20119;-84
2023/08/24 10:34:45;;;;;;;5.68;4.35;;;34.90;50.70;;;;;;5051353;28;20028;-83
2023/08/24 10:37:11;;;;;;;5.20;4.53;;;34.60;51.10;;;;;;5051306;28;20025;-84
2023/08/24 10:39:43;;;;;;;10.57;5.00;;;34.30;51.90;;;;;;5050164;28;20032;-84
2023/08/24 10:42:13;;;;;;;14.18;5.30;;;34.10;51.20;;;;;;5050234;28;20045;-84
2023/08/24 10:44:44;;;;;;;9.68;4.97;;;34.00;51.30;;;;;;5051443;28;20059;-84
2023/08/24 10:47:25;;;;;;;8.50;5.57;;;34.10;52.30;;;;;;5050856;28;20083;-83
2023/08/24 10:49:54;;;;;;;9.55;5.28;;;33.90;50.60;;;;;;5049997;28;20600;-83
2023/08/24 10:52:23;;;;;;;6.97;5.13;;;33.50;52.30;;;;;;5049514;28;20032;-84
2023/08/24 10:54:50;;;;;;;6.40;5.28;;;33.40;52.70;;;;;;5050671;28;20048;-80
2023/08/24 10:57:31;;;;;;;8.25;5.78;;;33.30;53.50;;;;;;5050160;28;20079;-84
2023/08/24 11:00:06;;;;;;;5.93;4.55;;;33.30;52.80;;;;;;5050370;28;20381;-83
2023/08/24 11:02:49;;;;;;;6.80;5.32;;;33.00;53.90;;;;;;5051090;28;20051;-84
2023/08/24 11:05:35;;;;;;;10.65;5.45;;;32.80;54.80;;;;;;5051600;28;20494;-84
2023/08/24 11:08:05;;;;;;;7.93;5.00;;;32.50;54.10;;;;;;5050915;28;20037;-81
2023/08/24 11:10:43;;;;;;;9.25;4.80;;;32.60;54.90;;;;;;5051234;28;20131;-82
2023/08/24 11:13:12;;;;;;;9.13;4.93;;;32.80;55.60;;;;;;5044176;28;20095;-81
2023/08/24 11:15:42;;;;;;;6.68;5.15;;;33.00;54.70;;;;;;5036983;28;20018;-83
2023/08/24 11:18:14;;;;;;;7.10;5.18;;;33.20;54.20;;;;;;5038668;28;20029;-81
2023/08/24 11:21:03;;;;;;;8.55;5.22;;;33.20;53.80;;;;;;5041600;28;20112;-82
2023/08/24 11:23:29;;;;;;;10.98;5.55;;;33.30;51.70;;;;;;5041549;28;20033;-83
2023/08/24 11:25:58;;;;;;;7.03;5.82;;;33.30;50.70;;;;;;5041315;28;20036;-82
2023/08/24 11:28:26;;;;;;;6.95;4.90;;;33.20;50.70;;;;;;5049065;28;20516;-80
2023/08/24 11:30:52;;;;;;;6.57;5.30;;;32.90;51.30;;;;;;5050078;28;20039;-83
2023/08/24 11:33:35;;;;;;;6.07;4.90;;;32.70;51.90;;;;;;5050575;28;20025;-83
2023/08/24 11:36:03;;;;;;;6.57;4.72;;;32.90;53.40;;;;;;5051116;28;20033;-82
2023/08/24 11:38:42;;;;;;;7.07;4.72;;;33.00;54.10;;;;;;5048640;28;20087;-82
2023/08/24 11:41:15;;;;;;;10.90;5.45;;;33.20;52.20;;;;;;5051054;28;20021;-82
2023/08/24 11:43:42;;;;;;;8.15;5.30;;;33.20;53.00;;;;;;5050815;28;20591;-83
2023/08/24 11:46:08;;;;;;;7.18;5.05;;;33.30;52.50;;;;;;5051400;28;20028;-83
2023/08/24 11:48:36;;;;;;;11.25;5.60;;;33.30;53.00;;;;;;5032827;28;20030;-82
2023/08/24 11:51:02;;;;;;;13.90;5.20;;;33.40;53.00;;;;;;5029949;28;20156;-83
2023/08/24 11:53:31;;;;;;;6.15;4.85;;;33.30;53.10;;;;;;5030084;28;20393;-83
2023/08/24 11:55:58;;;;;;;7.82;4.95;;;33.30;52.00;;;;;;5030895;28;20034;-83
2023/08/24 11:58:23;;;;;;;11.80;4.90;;;33.30;53.50;;;;;;5029345;28;20044;-82
2023/08/24 12:00:49;;;;;;;7.65;4.93;;;33.30;53.70;;;;;;5031477;28;20475;-82
2023/08/24 12:03:15;;;;;;;6.75;4.90;;;33.30;52.90;;;;;;5033651;28;20029;-82
2023/08/24 12:05:41;;;;;;;6.60;5.40;;;33.30;52.40;;;;;;5032960;28;20059;-84
2023/08/24 12:08:06;;;;;;;6.22;5.35;;;33.40;51.50;;;;;;5034039;28;20576;-82
2023/08/24 12:10:32;;;;;;;7.38;5.03;;;33.40;52.40;;;;;;5033143;28;20033;-83
2023/08/24 12:13:05;;;;;;;10.75;5.22;;;33.50;52.50;;;;;;5031531;28;20443;-83
2023/08/24 12:15:35;;;;;;;7.18;5.10;;;33.60;53.00;;;;;;5031874;28;20569;-82
2023/08/24 12:18:11;;;;;;;11.55;5.03;;;33.70;51.70;;;;;;5034092;28;20086;-83
2023/08/24 12:20:37;;;;;;;10.85;5.07;;;33.70;50.80;;;;;;5032141;28;20121;-83
2023/08/24 12:23:03;;;;;;;9.10;4.93;;;33.70;50.30;;;;;;5033178;28;20079;-83
2023/08/24 12:25:29;;;;;;;7.30;5.00;;;33.60;45.50;;;;;;5032736;28;20057;-82
2023/08/24 12:28:12;;;;;;;6.10;5.07;;;33.40;47.90;;;;;;5031561;28;20060;-82
2023/08/24 12:30:48;;;;;;;12.93;5.07;;;33.50;49.80;;;;;;5033120;28;20065;-82
2023/08/24 12:33:28;;;;;;;8.15;5.30;;;33.30;49.30;;;;;;5033553;28;20025;-83
2023/08/24 12:35:55;;;;;;;9.05;4.60;;;33.30;50.90;;;;;;5033043;28;20566;-82
2023/08/24 12:38:22;;;;;;;6.47;4.70;;;33.30;50.50;;;;;;5034149;28;20041;-83
2023/08/24 12:40:48;;;;;;;7.10;5.20;;;33.30;48.30;;;;;;5030927;28;20472;-82
2023/08/24 12:43:14;;;;;;;9.88;4.15;;;33.40;50.10;;;;;;5032477;28;20105;-83